Colchester, VT

9:10 AM EDT on August 03, 2015 (GMT -0400)
APRSWXNET | | Change Station
CLOSE
Current Station
Personal Weather Station
Location: Winooski, VT
Elevation: 310 ft
Nearby Weather Stations

Elev 310 ft 44.50 °N, 73.20 °W | Updated 33 minutes ago

Scattered Clouds
Scattered Clouds
75 °F
Feels Like 77 °F
N
5
Wind Variable Wind from SSW
Gusts 22.0 mph

Today
High -- | Low -- °F
--% Chance of Precip.
Yesterday
High -- | Low -- °F
Precip. -- in
5:41 AM 8:15 PM
Waning Gibbous, 87% visible
Pressure 29.68 in
Visibility 10.0 miles
Clouds Few 4500 ft
Scattered Clouds 15000 ft
Scattered Clouds 20000 ft
Heat Index 77 °F
Dew Point 61 °F
Humidity 62%
Rainfall in
Snow Depth Not available.
UV 3 out of 12
Pollen 3.90 out of 12
Air Quality Not available.
Flu Activity Not available.
METAR KBTV 031254Z 19013G24KT 10SM FEW045 SCT150 SCT200 25/16 A2968 RMK AO2 PK WND 18026/1219 SLP049 ACSL E T02500156

More Conditions Fewer Conditions

Pressure 29.68 in
Visibility 10.0 miles
Clouds Few 4500 ft
Scattered Clouds 15000 ft
Scattered Clouds 20000 ft
Heat Index 77 °F
Dew Point 61 °F
Humidity 62%
Rainfall in
Snow Depth Not available.
UV 3 out of 12
Pollen 3.90 out of 12
Air Quality Not available.
Flu Activity Not available.
METAR KBTV 031254Z 19013G24KT 10SM FEW045 SCT150 SCT200 25/16 A2968 RMK AO2 PK WND 18026/1219 SLP049 ACSL E T02500156

More Conditions Fewer Conditions

10-Day Weather Forecast

×

Almanac

Astronomy

Aug. 03, 2015 Rise Set
Actual Time
Civil Twilight
Nautical Twilight
Astronomical Twilight
Moon
Length of Visible Light
Length of Day
Tomorrow will be .
, % of the Moon is Illuminated

Today's Extremes

State Highs State Lows

Community

WunderPhotos

Upload Photos

1,843,629 photos uploaded!

WunderBlogs® & News

Nearby

Air Quality

  Air Quality AQ Index Pollutant
Not available.

Snow Depth

Station Depth Elevation

Earthquake Activity

City Distance Mag. Time & Date
Minimum magnitude displayed is 2.5.

Coastal Water Temperatures

Place Temperature

Stations

Nearby Weather Stations

Station Location Temp. Windchill Dew Point Humidity Wind Precip. Elev Updated Type